Jennie Dehmer — WDB7140 — position and weather

sailwx.info

Track history (hours):
 
Tides and Currents Weather Stations Pressure Air Temp Water Temp Dewpoint Dewpoint Depression Visibility Wind Speed Wind Dir Waves Ship Positions

Jennie Dehmer

Owner: Magonlia Marine Transport Co, Vicksburg, MS. More information available from US FCC via Universal Licensing System and Coast Guard Vessel Documentation Center.

Last reported at 2017-Aug-20 09:49 UTC. Time now 2017-Sep-22 00:58 UTC.
Position N 31°51' W 091°18'.
Warning: this ship's position is 32 days out of date.

Length 36 m; draft 8.6 m.

Type: Towing. MMSI: 366937040.

Date/timePositionNaut miles runAvg speedWind from/ knotsBaromVisibWave heightAir tempDewpointWater temp
2017-Aug-20 09:49N 31°51' W 091°18'19 6.5
2017-Aug-20 06:49N 32°08' W 091°06'3 7.5
2017-Aug-20 06:29N 32°07' W 091°03'5 6.8
2017-Aug-20 05:46N 32°11' W 090°60'2 8.1
2017-Aug-20 05:30N 32°13' W 090°59'4 7.9
2017-Aug-20 05:00N 32°17' W 090°57'4 7.8
2017-Aug-20 04:30N 32°20' W 090°54'2 4.2
2017-Aug-20 04:00N 32°22' W 090°53'1 1.9
2017-Aug-20 03:30N 32°23' W 090°53'1 2.3
2017-Aug-20 03:00N 32°22' W 090°53'1 2.3
2017-Aug-20 02:30N 32°21' W 090°53'1 1.0
2017-Aug-20 02:00N 32°21' W 090°53'2 4.2
2017-Aug-20 01:30N 32°23' W 090°53'1 1.5
2017-Aug-20 01:00N 32°23' W 090°52'0 0.0
2017-Aug-20 00:30N 32°23' W 090°52'0 0.0
2017-Aug-19 21:52N 32°23' W 090°52'0 0.0
2017-Aug-19 21:30N 32°23' W 090°52'0 0.1
2017-Aug-19 21:00N 32°23' W 090°52'0 0.3
2017-Aug-19 20:30N 32°23' W 090°53'0 0.3
2017-Aug-19 20:00N 32°23' W 090°52'0 0.0
2017-Aug-19 19:30N 32°23' W 090°52'0 0.4
2017-Aug-19 19:00N 32°22' W 090°52'0 0.2
2017-Aug-19 18:31N 32°23' W 090°52'0 0.2
2017-Aug-19 18:01N 32°23' W 090°53'1 1.2
2017-Aug-19 17:31N 32°23' W 090°53'0 0.0
2017-Aug-19 16:42N 32°23' W 090°53'0 0.0
2017-Aug-19 16:30N 32°23' W 090°53'0 0.0
2017-Aug-19 16:00N 32°23' W 090°53'0 0.0
2017-Aug-19 15:30N 32°23' W 090°53'0 0.0
2017-Aug-19 15:00N 32°23' W 090°53'0 0.0
2017-Aug-19 14:00N 32°23' W 090°53'0 0.0
2017-Aug-19 13:30N 32°23' W 090°53'0 0.0
2017-Aug-19 13:00N 32°23' W 090°53'0 0.0
2017-Aug-19 12:30N 32°23' W 090°53'0 0.0
2017-Aug-19 12:00N 32°23' W 090°53'0 0.0
2017-Aug-19 11:30N 32°23' W 090°53'0 0.0
2017-Aug-19 11:00N 32°23' W 090°53'0 0.0
2017-Aug-19 10:30N 32°23' W 090°53'0 0.0
2017-Aug-19 10:00N 32°23' W 090°53'0 0.0
2017-Aug-19 09:30N 32°23' W 090°53'0 0.0
2017-Aug-19 09:00N 32°23' W 090°53'0 0.0
2017-Aug-19 08:30N 32°23' W 090°53'0 0.0
2017-Aug-19 08:00N 32°23' W 090°53'0 0.0
2017-Aug-19 07:30N 32°23' W 090°53'0 0.0
2017-Aug-19 07:00N 32°23' W 090°53'0 0.0
2017-Aug-19 06:30N 32°23' W 090°53'0 0.0
2017-Aug-19 06:00N 32°23' W 090°53'0 0.0
2017-Aug-19 05:30N 32°23' W 090°53'0 0.0
2017-Aug-19 05:00N 32°23' W 090°53'0 0.0
2017-Aug-19 04:30N 32°23' W 090°53'0 0.0
2017-Aug-19 04:00N 32°23' W 090°53'0 0.0
2017-Aug-19 03:30N 32°23' W 090°53'0 0.0
2017-Aug-19 03:00N 32°23' W 090°53'0 0.0
2017-Aug-19 02:30N 32°23' W 090°53'0 0.0
2017-Aug-19 02:00N 32°23' W 090°53'0 0.0
2017-Aug-19 01:30N 32°23' W 090°53'0 0.0
2017-Aug-19 01:00N 32°23' W 090°53'0 0.0
2017-Aug-19 00:30N 32°23' W 090°53'0 0.0
2017-Aug-19 00:00N 32°23' W 090°53'0 0.0
2017-Aug-18 23:30N 32°23' W 090°53'0 0.0
2017-Aug-18 23:00N 32°23' W 090°53'0 0.0
2017-Aug-18 21:24N 32°23' W 090°53'1 1.3
2017-Aug-18 21:00N 32°23' W 090°53'0 0.4
2017-Aug-18 20:30N 32°23' W 090°52'0 0.1
2017-Aug-18 20:00N 32°23' W 090°52'0 0.1
2017-Aug-18 19:30N 32°23' W 090°53'0 0.0
2017-Aug-18 19:00N 32°23' W 090°53'0 0.0
2017-Aug-18 18:30N 32°23' W 090°53'0 0.0
2017-Aug-18 18:00N 32°23' W 090°53'0 0.0
2017-Aug-18 17:30N 32°23' W 090°53'0 0.0
2017-Aug-18 17:00N 32°23' W 090°53'0 0.0
2017-Aug-18 16:30N 32°23' W 090°53'0 0.3
2017-Aug-18 16:00N 32°23' W 090°52'0 0.5
2017-Aug-18 15:30N 32°23' W 090°53'0 0.1
2017-Aug-18 15:00N 32°23' W 090°53'0 0.0
2017-Aug-18 14:00N 32°23' W 090°53'0 0.0
2017-Aug-18 13:30N 32°23' W 090°53'0 0.0
2017-Aug-18 13:00N 32°23' W 090°53'0 0.0
2017-Aug-18 12:30N 32°23' W 090°53'0 0.0
2017-Aug-18 12:00N 32°23' W 090°53'0 0.0
2017-Aug-18 11:30N 32°23' W 090°53'0 0.0
2017-Aug-18 11:00N 32°23' W 090°53'0 0.0
2017-Aug-18 10:30N 32°23' W 090°53'0 0.0
2017-Aug-18 10:00N 32°23' W 090°53'0 0.0
2017-Aug-18 09:30N 32°23' W 090°53'0 0.0
2017-Aug-18 09:00N 32°23' W 090°53'0 0.0
2017-Aug-18 08:30N 32°23' W 090°53'0 0.0
2017-Aug-18 08:00N 32°23' W 090°53'0 0.0
2017-Aug-18 07:30N 32°23' W 090°53'0 0.0
2017-Aug-18 07:00N 32°23' W 090°53'0 0.0
2017-Aug-18 06:30N 32°23' W 090°53'0 0.0
2017-Aug-18 06:00N 32°23' W 090°53'0 0.0
2017-Aug-18 05:30N 32°23' W 090°53'0 0.0
2017-Aug-18 05:00N 32°23' W 090°53'0 0.0
2017-Aug-18 04:30N 32°23' W 090°53'0 0.0
2017-Aug-18 04:00N 32°23' W 090°53'0 0.0
2017-Aug-18 03:30N 32°23' W 090°53'0 0.0
2017-Aug-18 03:00N 32°23' W 090°53'0 0.0
2017-Aug-18 02:30N 32°23' W 090°53'0 0.0
2017-Aug-18 02:00N 32°23' W 090°53'0 0.0
2017-Aug-18 01:30N 32°23' W 090°53'0 0.0
2017-Aug-18 01:00N 32°23' W 090°53'0 0.0
2017-Aug-18 00:30N 32°23' W 090°53'0 0.0
2017-Aug-18 00:00N 32°23' W 090°53'0 0.0
2017-Aug-17 23:30N 32°23' W 090°53'0 0.0
2017-Aug-17 23:00N 32°23' W 090°53'0 0.0
2017-Aug-17 22:30N 32°23' W 090°53'0 0.0
2017-Aug-17 22:00N 32°23' W 090°53'0 0.0
2017-Aug-17 21:30N 32°23' W 090°53'0 0.0
2017-Aug-17 21:00N 32°23' W 090°53'0 0.0
2017-Aug-17 20:30N 32°23' W 090°53'0 0.0
2017-Aug-17 20:00N 32°23' W 090°53'0 0.0
2017-Aug-17 19:30N 32°23' W 090°53'1 1.6
2017-Aug-17 18:54N 32°23' W 090°54'0 0.0
2017-Aug-17 18:30N 32°23' W 090°54'0 0.0
2017-Aug-17 18:00N 32°23' W 090°54'0 0.4
2017-Aug-17 17:30N 32°22' W 090°53'1 1.6
2017-Aug-17 17:00N 32°23' W 090°53'0 0.3
2017-Aug-17 16:30N 32°23' W 090°53'0 0.0
2017-Aug-17 16:00N 32°23' W 090°53'0 0.0
2017-Aug-17 15:30N 32°23' W 090°53'0 0.6
2017-Aug-17 15:00N 32°23' W 090°52'3 5.5
2017-Aug-17 14:30N 32°20' W 090°54'4 7.4
2017-Aug-17 14:00N 32°21' W 090°58'5 9.4
2017-Aug-17 13:30N 32°25' W 091°00'611.7
2017-Aug-17 13:00N 32°28' W 091°06'611.5
2017-Aug-17 12:30N 32°34' W 091°06'  
Track history (hours):
 
Tides and Currents Weather Stations Pressure Air Temp Water Temp Dewpoint Dewpoint Depression Visibility Wind Speed Wind Dir Waves Ship Positions

Jennie Dehmer

Owner: Magonlia Marine Transport Co, Vicksburg, MS. More information available from US FCC via Universal Licensing System and Coast Guard Vessel Documentation Center.

Last reported at 2017-Aug-20 09:49 UTC. Time now 2017-Sep-22 00:58 UTC.
Position N 31°51' W 091°18'.
Warning: this ship's position is 32 days out of date.

Length 36 m; draft 8.6 m.

Type: Towing. MMSI: 366937040.

Date/timePositionNaut miles runAvg speedWind from/ knotsBaromVisibWave heightAir tempDewpointWater temp
2017-Aug-20 09:49N 31°51' W 091°18'19 6.5
2017-Aug-20 06:49N 32°08' W 091°06'3 7.5
2017-Aug-20 06:29N 32°07' W 091°03'5 6.8
2017-Aug-20 05:46N 32°11' W 090°60'2 8.1
2017-Aug-20 05:30N 32°13' W 090°59'4 7.9
2017-Aug-20 05:00N 32°17' W 090°57'4 7.8
2017-Aug-20 04:30N 32°20' W 090°54'2 4.2
2017-Aug-20 04:00N 32°22' W 090°53'1 1.9
2017-Aug-20 03:30N 32°23' W 090°53'1 2.3
2017-Aug-20 03:00N 32°22' W 090°53'1 2.3
2017-Aug-20 02:30N 32°21' W 090°53'1 1.0
2017-Aug-20 02:00N 32°21' W 090°53'2 4.2
2017-Aug-20 01:30N 32°23' W 090°53'1 1.5
2017-Aug-20 01:00N 32°23' W 090°52'0 0.0
2017-Aug-20 00:30N 32°23' W 090°52'0 0.0
2017-Aug-19 21:52N 32°23' W 090°52'0 0.0
2017-Aug-19 21:30N 32°23' W 090°52'0 0.1
2017-Aug-19 21:00N 32°23' W 090°52'0 0.3
2017-Aug-19 20:30N 32°23' W 090°53'0 0.3
2017-Aug-19 20:00N 32°23' W 090°52'0 0.0
2017-Aug-19 19:30N 32°23' W 090°52'0 0.4
2017-Aug-19 19:00N 32°22' W 090°52'0 0.2
2017-Aug-19 18:31N 32°23' W 090°52'0 0.2
2017-Aug-19 18:01N 32°23' W 090°53'1 1.2
2017-Aug-19 17:31N 32°23' W 090°53'0 0.0
2017-Aug-19 16:42N 32°23' W 090°53'0 0.0
2017-Aug-19 16:30N 32°23' W 090°53'0 0.0
2017-Aug-19 16:00N 32°23' W 090°53'0 0.0
2017-Aug-19 15:30N 32°23' W 090°53'0 0.0
2017-Aug-19 15:00N 32°23' W 090°53'0 0.0
2017-Aug-19 14:00N 32°23' W 090°53'0 0.0
2017-Aug-19 13:30N 32°23' W 090°53'0 0.0
2017-Aug-19 13:00N 32°23' W 090°53'0 0.0
2017-Aug-19 12:30N 32°23' W 090°53'0 0.0
2017-Aug-19 12:00N 32°23' W 090°53'0 0.0
2017-Aug-19 11:30N 32°23' W 090°53'0 0.0
2017-Aug-19 11:00N 32°23' W 090°53'0 0.0
2017-Aug-19 10:30N 32°23' W 090°53'0 0.0
2017-Aug-19 10:00N 32°23' W 090°53'0 0.0
2017-Aug-19 09:30N 32°23' W 090°53'0 0.0
2017-Aug-19 09:00N 32°23' W 090°53'0 0.0
2017-Aug-19 08:30N 32°23' W 090°53'0 0.0
2017-Aug-19 08:00N 32°23' W 090°53'0 0.0
2017-Aug-19 07:30N 32°23' W 090°53'0 0.0
2017-Aug-19 07:00N 32°23' W 090°53'0 0.0
2017-Aug-19 06:30N 32°23' W 090°53'0 0.0
2017-Aug-19 06:00N 32°23' W 090°53'0 0.0
2017-Aug-19 05:30N 32°23' W 090°53'0 0.0
2017-Aug-19 05:00N 32°23' W 090°53'0 0.0
2017-Aug-19 04:30N 32°23' W 090°53'0 0.0
2017-Aug-19 04:00N 32°23' W 090°53'0 0.0
2017-Aug-19 03:30N 32°23' W 090°53'0 0.0
2017-Aug-19 03:00N 32°23' W 090°53'0 0.0
2017-Aug-19 02:30N 32°23' W 090°53'0 0.0
2017-Aug-19 02:00N 32°23' W 090°53'0 0.0
2017-Aug-19 01:30N 32°23' W 090°53'0 0.0
2017-Aug-19 01:00N 32°23' W 090°53'0 0.0
2017-Aug-19 00:30N 32°23' W 090°53'0 0.0
2017-Aug-19 00:00N 32°23' W 090°53'0 0.0
2017-Aug-18 23:30N 32°23' W 090°53'0 0.0
2017-Aug-18 23:00N 32°23' W 090°53'0 0.0
2017-Aug-18 21:24N 32°23' W 090°53'1 1.3
2017-Aug-18 21:00N 32°23' W 090°53'0 0.4
2017-Aug-18 20:30N 32°23' W 090°52'0 0.1
2017-Aug-18 20:00N 32°23' W 090°52'0 0.1
2017-Aug-18 19:30N 32°23' W 090°53'0 0.0
2017-Aug-18 19:00N 32°23' W 090°53'0 0.0
2017-Aug-18 18:30N 32°23' W 090°53'0 0.0
2017-Aug-18 18:00N 32°23' W 090°53'0 0.0
2017-Aug-18 17:30N 32°23' W 090°53'0 0.0
2017-Aug-18 17:00N 32°23' W 090°53'0 0.0
2017-Aug-18 16:30N 32°23' W 090°53'0 0.3
2017-Aug-18 16:00N 32°23' W 090°52'0 0.5
2017-Aug-18 15:30N 32°23' W 090°53'0 0.1
2017-Aug-18 15:00N 32°23' W 090°53'0 0.0
2017-Aug-18 14:00N 32°23' W 090°53'0 0.0
2017-Aug-18 13:30N 32°23' W 090°53'0 0.0
2017-Aug-18 13:00N 32°23' W 090°53'0 0.0
2017-Aug-18 12:30N 32°23' W 090°53'0 0.0
2017-Aug-18 12:00N 32°23' W 090°53'0 0.0
2017-Aug-18 11:30N 32°23' W 090°53'0 0.0
2017-Aug-18 11:00N 32°23' W 090°53'0 0.0
2017-Aug-18 10:30N 32°23' W 090°53'0 0.0
2017-Aug-18 10:00N 32°23' W 090°53'0 0.0
2017-Aug-18 09:30N 32°23' W 090°53'0 0.0
2017-Aug-18 09:00N 32°23' W 090°53'0 0.0
2017-Aug-18 08:30N 32°23' W 090°53'0 0.0
2017-Aug-18 08:00N 32°23' W 090°53'0 0.0
2017-Aug-18 07:30N 32°23' W 090°53'0 0.0
2017-Aug-18 07:00N 32°23' W 090°53'0 0.0
2017-Aug-18 06:30N 32°23' W 090°53'0 0.0
2017-Aug-18 06:00N 32°23' W 090°53'0 0.0
2017-Aug-18 05:30N 32°23' W 090°53'0 0.0
2017-Aug-18 05:00N 32°23' W 090°53'0 0.0
2017-Aug-18 04:30N 32°23' W 090°53'0 0.0
2017-Aug-18 04:00N 32°23' W 090°53'0 0.0
2017-Aug-18 03:30N 32°23' W 090°53'0 0.0
2017-Aug-18 03:00N 32°23' W 090°53'0 0.0
2017-Aug-18 02:30N 32°23' W 090°53'0 0.0
2017-Aug-18 02:00N 32°23' W 090°53'0 0.0
2017-Aug-18 01:30N 32°23' W 090°53'0 0.0
2017-Aug-18 01:00N 32°23' W 090°53'0 0.0
2017-Aug-18 00:30N 32°23' W 090°53'0 0.0
2017-Aug-18 00:00N 32°23' W 090°53'0 0.0
2017-Aug-17 23:30N 32°23' W 090°53'0 0.0
2017-Aug-17 23:00N 32°23' W 090°53'0 0.0
2017-Aug-17 22:30N 32°23' W 090°53'0 0.0
2017-Aug-17 22:00N 32°23' W 090°53'0 0.0
2017-Aug-17 21:30N 32°23' W 090°53'0 0.0
2017-Aug-17 21:00N 32°23' W 090°53'0 0.0
2017-Aug-17 20:30N 32°23' W 090°53'0 0.0
2017-Aug-17 20:00N 32°23' W 090°53'0 0.0
2017-Aug-17 19:30N 32°23' W 090°53'1 1.6
2017-Aug-17 18:54N 32°23' W 090°54'0 0.0
2017-Aug-17 18:30N 32°23' W 090°54'0 0.0
2017-Aug-17 18:00N 32°23' W 090°54'0 0.4
2017-Aug-17 17:30N 32°22' W 090°53'1 1.6
2017-Aug-17 17:00N 32°23' W 090°53'0 0.3
2017-Aug-17 16:30N 32°23' W 090°53'0 0.0
2017-Aug-17 16:00N 32°23' W 090°53'0 0.0
2017-Aug-17 15:30N 32°23' W 090°53'0 0.6
2017-Aug-17 15:00N 32°23' W 090°52'3 5.5
2017-Aug-17 14:30N 32°20' W 090°54'4 7.4
2017-Aug-17 14:00N 32°21' W 090°58'5 9.4
2017-Aug-17 13:30N 32°25' W 091°00'611.7
2017-Aug-17 13:00N 32°28' W 091°06'611.5
2017-Aug-17 12:30N 32°34' W 091°06'  

Dump ship's entire track history